createdAt,value
2022-11-07T00:01:37.567Z,22.40
2022-11-07T00:04:14.224Z,23.43
2022-11-07T00:06:47.591Z,24.07
2022-11-07T00:09:16.372Z,23.83
2022-11-07T00:11:49.292Z,22.33
2022-11-07T00:14:20.234Z,22.20
2022-11-07T00:16:53.567Z,21.20
2022-11-07T00:19:25.682Z,21.93
2022-11-07T00:21:54.399Z,26.47
2022-11-07T00:24:28.035Z,28.20
2022-11-07T00:27:22.195Z,26.37
2022-11-07T00:30:03.947Z,24.57
2022-11-07T00:32:33.643Z,23.17
2022-11-07T00:35:06.850Z,24.53
2022-11-07T00:37:37.216Z,24.67
2022-11-07T00:40:15.608Z,27.23
2022-11-07T00:42:44.067Z,25.13
2022-11-07T00:45:13.459Z,27.63
2022-11-07T00:47:44.418Z,27.70
2022-11-07T00:50:13.242Z,28.10
2022-11-07T00:52:42.418Z,27.70
2022-11-07T00:55:12.540Z,27.40
2022-11-07T00:57:40.811Z,28.00
2022-11-07T01:00:10.452Z,28.97
2022-11-07T01:02:39.478Z,28.43
2022-11-07T01:05:13.393Z,28.03
2022-11-07T01:07:42.507Z,28.10
2022-11-07T01:10:10.706Z,27.77
2022-11-07T01:12:38.926Z,28.77
2022-11-07T01:15:07.829Z,28.60
2022-11-07T01:18:01.382Z,31.03
2022-11-07T01:20:31.099Z,29.97
2022-11-07T01:23:14.789Z,29.90
2022-11-07T01:25:52.024Z,29.13
2022-11-07T01:28:21.214Z,29.97
2022-11-07T01:30:49.528Z,29.80
2022-11-07T01:33:18.224Z,31.03
2022-11-07T01:35:52.414Z,30.33
2022-11-07T01:38:20.665Z,31.03
2022-11-07T01:41:19.487Z,31.50
2022-11-07T01:47:59.802Z,30.17
2022-11-07T01:50:37.994Z,30.00
2022-11-07T01:53:15.859Z,32.23
2022-11-07T01:56:14.842Z,34.87
2022-11-07T01:59:13.683Z,33.80
2022-11-07T02:05:01.510Z,30.37
2022-11-07T02:07:36.654Z,29.93
2022-11-07T02:10:07.541Z,29.17
2022-11-07T02:12:39.337Z,28.57
2022-11-07T02:15:12.432Z,27.70
2022-11-07T02:17:41.489Z,28.37
2022-11-07T02:20:10.662Z,28.97
2022-11-07T02:22:44.449Z,28.83
2022-11-07T02:25:16.734Z,28.33
2022-11-07T02:27:47.034Z,29.60
2022-11-07T02:30:28.735Z,27.50
2022-11-07T02:32:57.565Z,28.57
2022-11-07T02:39:57.868Z,27.83
2022-11-07T02:42:43.665Z,27.83
2022-11-07T02:45:18.138Z,27.97
2022-11-07T02:47:52.343Z,28.23
2022-11-07T02:50:26.424Z,27.93
2022-11-07T02:52:54.615Z,27.50
2022-11-07T02:55:29.246Z,27.33
2022-11-07T02:58:06.202Z,27.10
2022-11-07T03:00:40.615Z,27.00
2022-11-07T03:03:10.306Z,24.70
2022-11-07T03:05:43.448Z,25.23
2022-11-07T03:08:15.297Z,24.20
2022-11-07T03:10:44.435Z,24.23
2022-11-07T03:13:14.756Z,25.00
2022-11-07T03:15:44.465Z,26.00
2022-11-07T03:18:15.487Z,24.93
2022-11-07T03:20:43.813Z,24.87
2022-11-07T03:23:13.521Z,25.10
2022-11-07T03:25:43.475Z,23.33
2022-11-07T03:28:12.278Z,25.33
2022-11-07T03:30:44.674Z,23.40
2022-11-07T03:33:13.641Z,22.97
2022-11-07T03:35:42.577Z,23.30
2022-11-07T03:38:29.210Z,23.63
2022-11-07T03:41:01.643Z,24.20
2022-11-07T03:43:29.769Z,22.33
2022-11-07T03:45:59.468Z,21.73
2022-11-07T03:48:28.245Z,22.63
2022-11-07T03:51:03.091Z,21.63
2022-11-07T03:53:32.275Z,21.10
2022-11-07T03:56:04.625Z,21.07
2022-11-07T03:58:36.631Z,21.73
2022-11-07T04:01:54.395Z,21.83
2022-11-07T04:04:27.404Z,21.37
2022-11-07T04:06:56.085Z,22.20
2022-11-07T04:09:25.295Z,21.43
2022-11-07T04:12:12.312Z,21.73
2022-11-07T04:14:59.326Z,22.97
2022-11-07T04:17:28.675Z,22.53
2022-11-07T04:19:59.435Z,22.67
2022-11-07T04:22:32.070Z,23.33
2022-11-07T04:28:39.823Z,23.60
2022-11-07T04:31:08.288Z,24.70
2022-11-07T04:33:37.461Z,25.70
2022-11-07T04:36:07.586Z,25.50
2022-11-07T04:38:42.825Z,26.30
2022-11-07T04:41:20.491Z,26.60
2022-11-07T04:43:52.868Z,27.67
2022-11-07T04:46:23.202Z,28.00
2022-11-07T04:48:58.764Z,26.80
2022-11-07T04:51:29.456Z,27.97
2022-11-07T04:53:58.454Z,28.03
2022-11-07T04:56:30.524Z,28.60
2022-11-07T04:59:02.498Z,29.40
2022-11-07T05:01:30.814Z,29.63
2022-11-07T05:03:59.048Z,29.53
2022-11-07T05:06:36.313Z,29.30
2022-11-07T05:09:05.465Z,30.60
2022-11-07T05:11:34.252Z,31.00
2022-11-07T05:14:04.954Z,31.03
2022-11-07T05:16:35.583Z,31.50
2022-11-07T05:19:16.924Z,31.43
2022-11-07T05:22:12.397Z,29.90
2022-11-07T05:24:40.497Z,31.67
2022-11-07T05:27:17.504Z,30.77
2022-11-07T05:29:46.306Z,31.70
2022-11-07T05:32:38.857Z,32.30
2022-11-07T05:38:28.833Z,31.77
2022-11-07T05:40:57.416Z,31.30
2022-11-07T05:43:28.396Z,32.73
2022-11-07T05:46:01.621Z,33.93
2022-11-07T05:48:30.551Z,32.47
2022-11-07T05:50:59.517Z,33.63
2022-11-07T05:53:36.390Z,32.87
2022-11-07T05:56:06.493Z,33.23
2022-11-07T05:58:34.759Z,34.93
2022-11-07T06:01:06.029Z,31.60
2022-11-07T06:03:39.210Z,32.03
2022-11-07T06:06:07.974Z,32.47
2022-11-07T06:08:43.995Z,32.23
2022-11-07T06:11:12.524Z,32.40
2022-11-07T06:13:41.212Z,32.57
2022-11-07T06:16:10.516Z,32.07
2022-11-07T06:18:41.543Z,33.60
2022-11-07T06:21:13.209Z,29.67
2022-11-07T06:23:42.778Z,32.43
2022-11-07T06:26:12.997Z,33.03
2022-11-07T06:28:51.644Z,32.33
2022-11-07T06:31:23.594Z,32.57
2022-11-07T06:33:55.494Z,32.23
2022-11-07T06:36:26.086Z,31.90
2022-11-07T06:39:10.157Z,32.47
2022-11-07T06:41:43.939Z,31.07
2022-11-07T06:44:13.360Z,31.07
2022-11-07T06:46:50.577Z,29.73
2022-11-07T06:49:29.887Z,30.40
2022-11-07T06:51:58.554Z,29.60
2022-11-07T06:54:28.598Z,29.93
2022-11-07T06:56:56.989Z,29.03
2022-11-07T06:59:28.623Z,29.20
2022-11-07T07:01:58.159Z,29.47
2022-11-07T07:04:29.814Z,28.90
2022-11-07T07:06:58.058Z,29.00
2022-11-07T07:09:28.340Z,27.87
2022-11-07T07:11:56.660Z,29.30
2022-11-07T07:14:25.516Z,29.57
2022-11-07T07:16:53.731Z,27.57
2022-11-07T07:19:25.199Z,28.07
2022-11-07T07:21:53.537Z,27.93
2022-11-07T07:24:21.796Z,28.63
2022-11-07T07:26:52.630Z,27.63
2022-11-07T07:29:20.847Z,26.97
2022-11-07T07:31:52.732Z,26.80
2022-11-07T07:34:21.519Z,26.93
2022-11-07T07:36:50.940Z,27.00
2022-11-07T07:39:19.564Z,25.60
2022-11-07T07:41:50.093Z,26.40
2022-11-07T07:44:24.394Z,25.67
2022-11-07T07:46:53.555Z,26.63
2022-11-07T07:49:21.778Z,25.47
2022-11-07T07:51:50.731Z,23.77
2022-11-07T07:54:19.190Z,23.50
2022-11-07T07:57:10.850Z,23.40
2022-11-07T08:00:03.958Z,22.53
2022-11-07T08:03:05.299Z,22.07
2022-11-07T08:05:34.565Z,22.00
2022-11-07T08:08:04.984Z,22.47
2022-11-07T08:10:42.042Z,21.67
2022-11-07T08:13:12.289Z,21.93
2022-11-07T08:15:42.572Z,21.10
2022-11-07T08:18:10.727Z,20.57
2022-11-07T08:20:39.650Z,20.27
2022-11-07T08:23:14.895Z,21.00
2022-11-07T08:25:52.122Z,21.53
2022-11-07T08:28:21.708Z,21.63
2022-11-07T08:30:58.617Z,20.13
2022-11-07T08:33:27.350Z,20.40
2022-11-07T08:35:57.093Z,19.03
2022-11-07T08:38:25.733Z,20.23
2022-11-07T08:45:25.254Z,18.80
2022-11-07T08:48:05.418Z,19.27
2022-11-07T08:50:34.537Z,19.33
2022-11-07T08:53:04.924Z,19.07
2022-11-07T08:55:36.851Z,18.37
2022-11-07T08:58:18.988Z,18.23
2022-11-07T09:00:47.732Z,17.77
2022-11-07T09:03:39.154Z,20.07
2022-11-07T09:06:10.203Z,18.60
2022-11-07T09:08:49.341Z,19.10
2022-11-07T09:11:23.930Z,18.47
2022-11-07T09:17:26.838Z,17.47
2022-11-07T09:20:09.038Z,19.33
2022-11-07T09:26:46.574Z,17.07
2022-11-07T09:29:39.174Z,17.73
2022-11-07T09:32:44.541Z,17.07
2022-11-07T09:35:23.875Z,17.17
2022-11-07T09:37:52.936Z,15.97
2022-11-07T09:40:32.743Z,16.17
2022-11-07T09:43:17.669Z,15.43
2022-11-07T09:46:24.598Z,16.30
2022-11-07T09:48:59.592Z,16.90
2022-11-07T09:51:36.322Z,16.67
2022-11-07T09:54:11.604Z,16.40
2022-11-07T09:56:44.603Z,15.83
2022-11-07T09:59:21.632Z,16.43
2022-11-07T10:01:52.774Z,15.33
2022-11-07T10:04:26.513Z,15.63
2022-11-07T10:07:03.656Z,16.40
2022-11-07T10:09:42.530Z,15.43
2022-11-07T10:12:29.390Z,14.37
2022-11-07T10:18:10.091Z,13.70
2022-11-07T10:21:37.166Z,14.37
2022-11-07T10:24:20.192Z,14.00
2022-11-07T10:26:51.263Z,13.13
2022-11-07T10:29:21.451Z,12.97
2022-11-07T10:31:59.321Z,12.30
2022-11-07T10:34:34.076Z,12.33
2022-11-07T10:37:02.481Z,11.87
2022-11-07T10:39:34.042Z,11.53
2022-11-07T10:42:15.401Z,10.60
2022-11-07T10:44:46.170Z,11.37
2022-11-07T10:47:19.446Z,11.03
2022-11-07T10:50:28.861Z,11.13
2022-11-07T10:53:01.884Z,10.43
2022-11-07T10:55:44.771Z,10.73
2022-11-07T10:58:21.114Z,10.27
2022-11-07T11:01:00.810Z,10.73
2022-11-07T11:03:43.151Z,10.57
2022-11-07T11:06:28.653Z,10.57
2022-11-07T11:08:57.883Z,10.73
2022-11-07T11:11:30.755Z,10.57
2022-11-07T11:14:07.269Z,10.93
2022-11-07T11:20:03.656Z,10.50
2022-11-07T11:22:47.097Z,10.20
2022-11-07T11:25:27.213Z,10.67
2022-11-07T11:28:03.713Z,10.23
2022-11-07T11:30:36.575Z,11.00
2022-11-07T11:33:11.524Z,10.37
2022-11-07T11:35:45.666Z,9.73
2022-11-07T11:38:29.214Z,9.93
2022-11-07T11:41:10.397Z,10.17
2022-11-07T11:43:48.505Z,10.13
2022-11-07T11:46:49.012Z,10.47
2022-11-07T11:49:26.312Z,10.33
2022-11-07T11:52:06.377Z,10.73
2022-11-07T11:54:51.634Z,10.20
2022-11-07T11:57:37.760Z,9.20
2022-11-07T12:00:17.571Z,11.40
2022-11-07T12:03:00.738Z,10.70
2022-11-07T12:06:04.671Z,9.57
2022-11-07T12:09:17.153Z,9.40
2022-11-07T12:12:00.596Z,9.00
2022-11-07T12:14:44.393Z,8.57
2022-11-07T12:20:50.945Z,9.63
2022-11-07T12:27:34.939Z,9.33
2022-11-07T12:30:10.265Z,9.90
2022-11-07T12:32:54.655Z,9.90
2022-11-07T12:35:37.846Z,9.67
2022-11-07T12:38:40.032Z,8.57
2022-11-07T12:41:49.800Z,9.23
2022-11-07T12:45:24.678Z,9.37
2022-11-07T12:48:54.830Z,8.43
2022-11-07T12:52:00.168Z,8.87
2022-11-07T12:54:54.173Z,8.00
2022-11-07T12:57:49.000Z,7.87
2022-11-07T13:00:28.756Z,7.50
2022-11-07T13:04:00.145Z,7.83
2022-11-07T13:06:38.518Z,7.00
2022-11-07T13:09:17.703Z,7.27
2022-11-07T13:11:55.747Z,7.70
2022-11-07T13:14:33.310Z,7.50
2022-11-07T13:17:20.475Z,7.37
2022-11-07T13:20:05.207Z,7.10
2022-11-07T13:22:40.743Z,7.50
2022-11-07T13:25:31.283Z,7.20
2022-11-07T13:28:10.810Z,6.83
2022-11-07T13:30:40.811Z,7.40
2022-11-07T13:33:29.186Z,7.50
2022-11-07T13:36:04.754Z,7.40
2022-11-07T13:38:48.378Z,7.07
2022-11-07T13:41:43.396Z,7.87
2022-11-07T13:44:21.528Z,7.57
2022-11-07T13:46:53.531Z,8.70
2022-11-07T13:49:32.068Z,8.93
2022-11-07T13:52:11.193Z,8.13
2022-11-07T13:55:01.056Z,8.50
2022-11-07T13:57:35.532Z,7.50
2022-11-07T14:00:19.846Z,8.17
2022-11-07T14:02:56.281Z,8.60
2022-11-07T14:05:37.616Z,8.07
2022-11-07T14:08:19.732Z,8.47
2022-11-07T14:10:51.735Z,8.37
2022-11-07T14:13:26.901Z,8.67
2022-11-07T14:16:07.176Z,8.70
2022-11-07T14:18:47.653Z,8.30
2022-11-07T14:21:22.820Z,8.10
2022-11-07T14:23:51.165Z,7.70
2022-11-07T14:26:30.890Z,7.67
2022-11-07T14:29:23.503Z,7.77
2022-11-07T14:32:02.918Z,8.30
2022-11-07T14:34:35.378Z,7.27
2022-11-07T14:37:07.711Z,7.73
2022-11-07T14:39:41.415Z,7.30
2022-11-07T14:42:21.555Z,7.47
2022-11-07T14:44:54.957Z,14.33
2022-11-07T14:48:17.734Z,8.10
2022-11-07T14:51:18.508Z,7.67
2022-11-07T14:53:56.698Z,7.43
2022-11-07T14:56:35.933Z,8.13
2022-11-07T14:59:09.937Z,7.53
2022-11-07T15:01:38.536Z,7.93
2022-11-07T15:04:17.763Z,8.20
2022-11-07T15:06:47.621Z,7.73
2022-11-07T15:09:22.035Z,8.20
2022-11-07T15:11:59.647Z,8.70
2022-11-07T15:14:33.532Z,8.87
2022-11-07T15:17:06.300Z,9.33
2022-11-07T15:19:37.759Z,10.07
2022-11-07T15:22:07.763Z,8.63
2022-11-07T15:24:44.755Z,8.67
2022-11-07T15:27:21.483Z,8.50
2022-11-07T15:29:56.487Z,8.70
2022-11-07T15:32:27.614Z,8.33
2022-11-07T15:35:12.333Z,9.20
2022-11-07T15:37:53.952Z,9.13
2022-11-07T15:40:23.816Z,9.07
2022-11-07T15:46:40.193Z,9.07
2022-11-07T15:49:13.293Z,11.23
2022-11-07T15:51:41.485Z,10.87
2022-11-07T15:55:01.005Z,10.60
2022-11-07T15:57:56.932Z,9.83
2022-11-07T16:00:27.868Z,10.00
2022-11-07T16:02:59.647Z,9.97
2022-11-07T16:05:28.113Z,10.43
2022-11-07T16:07:56.771Z,9.33
2022-11-07T16:15:02.481Z,10.33
2022-11-07T16:17:35.349Z,10.30
2022-11-07T16:20:07.913Z,10.50
2022-11-07T16:22:36.170Z,10.37
2022-11-07T16:25:10.121Z,11.03
2022-11-07T16:27:46.728Z,10.80
2022-11-07T16:30:16.722Z,10.83
2022-11-07T16:32:45.450Z,11.07
2022-11-07T16:35:15.936Z,10.57
2022-11-07T16:37:44.216Z,10.70
2022-11-07T16:40:15.394Z,11.07
2022-11-07T16:42:43.619Z,10.63
2022-11-07T16:45:38.016Z,13.43
2022-11-07T16:49:20.355Z,15.87
2022-11-07T16:51:56.760Z,11.90
2022-11-07T16:54:25.451Z,10.83
2022-11-07T16:56:54.120Z,11.47
2022-11-07T16:59:24.586Z,10.93
2022-11-07T17:01:53.345Z,10.87
2022-11-07T17:04:21.549Z,11.63
2022-11-07T17:06:49.864Z,11.40
2022-11-07T17:09:21.335Z,10.57
2022-11-07T17:11:49.872Z,10.70
2022-11-07T17:14:18.016Z,11.03
2022-11-07T17:16:48.878Z,10.73
2022-11-07T17:19:17.048Z,10.27
2022-11-07T17:22:04.793Z,10.80
2022-11-07T17:24:34.332Z,10.57
2022-11-07T17:27:06.701Z,9.93
2022-11-07T17:29:34.913Z,10.97
2022-11-07T17:32:03.335Z,10.53
2022-11-07T17:34:38.503Z,10.37
2022-11-07T17:37:16.709Z,10.40
2022-11-07T17:39:48.165Z,10.40
2022-11-07T17:42:16.491Z,9.37
2022-11-07T17:44:44.682Z,10.37
2022-11-07T17:47:44.988Z,9.70
2022-11-07T17:50:27.591Z,8.37
2022-11-07T17:53:03.127Z,9.17
2022-11-07T17:55:39.056Z,9.13
2022-11-07T17:58:07.304Z,9.20
2022-11-07T18:00:35.574Z,8.93
2022-11-07T18:03:04.740Z,9.40
2022-11-07T18:05:34.731Z,9.73
2022-11-07T18:08:07.109Z,9.80
2022-11-07T18:10:39.007Z,10.20
2022-11-07T18:13:07.586Z,10.47
2022-11-07T18:15:35.963Z,10.53
2022-11-07T18:18:10.739Z,10.40
2022-11-07T18:20:39.419Z,9.97
2022-11-07T18:23:09.725Z,10.67
2022-11-07T18:25:39.530Z,10.30
2022-11-07T18:28:09.870Z,10.97
2022-11-07T18:30:38.040Z,10.87
2022-11-07T18:33:06.289Z,10.97
2022-11-07T18:35:34.463Z,11.20
2022-11-07T18:38:02.670Z,11.17
2022-11-07T18:40:30.858Z,11.77
2022-11-07T18:43:00.556Z,11.60
2022-11-07T18:45:32.646Z,12.50
2022-11-07T18:48:00.836Z,11.93
2022-11-07T18:50:29.850Z,12.20
2022-11-07T18:52:58.653Z,11.90
2022-11-07T18:55:27.976Z,12.33
2022-11-07T18:57:56.222Z,11.60
2022-11-07T19:00:29.402Z,12.03
2022-11-07T19:02:57.644Z,12.60
2022-11-07T19:05:27.510Z,12.13
2022-11-07T19:07:55.754Z,12.77
2022-11-07T19:10:27.207Z,12.40
2022-11-07T19:12:55.410Z,12.53
2022-11-07T19:15:30.029Z,12.10
2022-11-07T19:17:58.259Z,13.10
2022-11-07T19:20:29.194Z,12.43
2022-11-07T19:23:03.796Z,11.90
2022-11-07T19:25:32.471Z,12.83
2022-11-07T19:28:03.180Z,12.03
2022-11-07T19:30:59.992Z,11.80
2022-11-07T19:33:30.238Z,11.83
2022-11-07T19:36:03.982Z,12.23
2022-11-07T19:38:36.769Z,11.00
2022-11-07T19:41:05.696Z,11.67
2022-11-07T19:44:01.796Z,10.83
2022-11-07T19:46:48.070Z,11.70
2022-11-07T19:49:24.976Z,10.83
2022-11-07T19:51:58.862Z,11.40
2022-11-07T19:54:33.526Z,11.73
2022-11-07T19:57:03.871Z,11.43
2022-11-07T19:59:37.612Z,12.13
2022-11-07T20:02:31.772Z,11.90
2022-11-07T20:05:00.751Z,10.97
2022-11-07T20:07:29.119Z,10.37
2022-11-07T20:10:04.326Z,10.33
2022-11-07T20:12:35.363Z,10.13
2022-11-07T20:15:03.569Z,10.73
2022-11-07T20:17:59.839Z,9.77
2022-11-07T20:20:29.711Z,9.90
2022-11-07T20:23:00.675Z,10.67
2022-11-07T20:25:29.081Z,9.53
2022-11-07T20:31:22.109Z,8.67
2022-11-07T20:34:05.610Z,9.80
2022-11-07T20:36:34.880Z,9.53
2022-11-07T20:39:12.261Z,10.10
2022-11-07T20:41:43.928Z,9.30
2022-11-07T20:48:45.444Z,9.57
2022-11-07T20:51:17.904Z,9.60
2022-11-07T20:53:50.070Z,18.30
2022-11-07T20:56:19.953Z,9.50
2022-11-07T20:58:48.935Z,9.43
2022-11-07T21:01:19.347Z,9.90
2022-11-07T21:03:51.502Z,9.87
2022-11-07T21:06:22.939Z,9.97
2022-11-07T21:08:52.713Z,9.57
2022-11-07T21:11:21.724Z,10.40
2022-11-07T21:13:53.276Z,9.97
2022-11-07T21:16:49.549Z,9.93
2022-11-07T21:19:18.044Z,9.97
2022-11-07T21:21:49.345Z,9.43
2022-11-07T21:24:22.312Z,10.20
2022-11-07T21:26:52.994Z,10.00
2022-11-07T21:29:28.101Z,10.27
2022-11-07T21:32:02.504Z,10.63
2022-11-07T21:35:06.373Z,11.03
2022-11-07T21:37:49.354Z,10.97
2022-11-07T21:40:19.357Z,11.37
2022-11-07T21:42:48.818Z,11.83
2022-11-07T21:45:19.798Z,10.83
2022-11-07T21:47:52.306Z,11.13
2022-11-07T21:50:42.971Z,10.97
2022-11-07T21:53:14.082Z,11.23
2022-11-07T21:55:42.930Z,10.73
2022-11-07T21:58:27.363Z,11.67
2022-11-07T22:01:04.497Z,11.60
2022-11-07T22:06:28.957Z,11.67
2022-11-07T22:08:58.815Z,11.40
2022-11-07T22:15:12.840Z,12.07
2022-11-07T22:17:42.051Z,11.67
2022-11-07T22:20:13.800Z,11.80
2022-11-07T22:22:42.997Z,11.30
2022-11-07T22:25:14.471Z,11.33
2022-11-07T22:27:44.655Z,12.20
2022-11-07T22:30:13.955Z,11.97
2022-11-07T22:32:46.078Z,11.93
2022-11-07T22:35:18.051Z,11.93
2022-11-07T22:37:52.248Z,12.20
2022-11-07T22:40:28.950Z,12.63
2022-11-07T22:42:58.956Z,12.97
2022-11-07T22:45:27.327Z,12.70
2022-11-07T22:48:02.961Z,12.17
2022-11-07T22:50:33.114Z,12.47
2022-11-07T22:53:05.420Z,12.23
2022-11-07T22:55:38.695Z,12.87
2022-11-07T22:58:11.204Z,13.20
2022-11-07T23:00:43.651Z,12.37
2022-11-07T23:03:14.378Z,13.13
2022-11-07T23:05:42.949Z,12.77
2022-11-07T23:08:19.194Z,12.23
2022-11-07T23:11:32.566Z,12.87
2022-11-07T23:14:15.818Z,12.27
2022-11-07T23:17:02.210Z,12.23
2022-11-07T23:19:35.432Z,12.80
2022-11-07T23:22:03.614Z,12.77
2022-11-07T23:24:31.939Z,13.07
2022-11-07T23:27:03.890Z,12.70
2022-11-07T23:29:36.970Z,12.47
2022-11-07T23:32:08.423Z,13.00
2022-11-07T23:34:38.857Z,11.73
2022-11-07T23:37:13.811Z,12.70
2022-11-07T23:39:45.578Z,11.77
2022-11-07T23:42:16.968Z,12.53
2022-11-07T23:45:09.308Z,12.40
2022-11-07T23:47:57.406Z,11.67
2022-11-07T23:50:46.533Z,12.67
2022-11-07T23:53:28.622Z,12.13
2022-11-07T23:55:59.648Z,11.97
2022-11-07T23:58:47.800Z,11.90
